createdAt,value
2023-04-24T00:01:53.303Z,91.27
2023-04-24T00:04:21.735Z,87.67
2023-04-24T00:06:54.870Z,89.17
2023-04-24T00:09:24.385Z,91.90
2023-04-24T00:11:52.750Z,86.30
2023-04-24T00:14:20.720Z,89.53
2023-04-24T00:16:48.863Z,87.27
2023-04-24T00:19:18.282Z,85.47
2023-04-24T00:21:46.670Z,89.10
2023-04-24T00:24:14.929Z,88.23
2023-04-24T00:26:44.476Z,88.30
2023-04-24T00:29:12.523Z,89.00
2023-04-24T00:31:40.851Z,89.83
2023-04-24T00:34:08.945Z,90.07
2023-04-24T00:36:37.100Z,89.50
2023-04-24T00:39:05.432Z,88.97
2023-04-24T00:41:33.645Z,90.90
2023-04-24T00:44:03.337Z,92.33
2023-04-24T00:46:32.387Z,93.33
2023-04-24T00:49:01.467Z,92.70
2023-04-24T00:51:29.611Z,92.03
2023-04-24T00:53:57.704Z,93.27
2023-04-24T00:56:26.128Z,90.17
2023-04-24T00:58:54.576Z,90.83
2023-04-24T01:01:24.614Z,92.70
2023-04-24T01:03:55.052Z,91.17
2023-04-24T01:06:24.400Z,88.33
2023-04-24T01:08:52.521Z,87.13
2023-04-24T01:11:21.022Z,88.67
2023-04-24T01:13:49.741Z,90.33
2023-04-24T01:16:18.711Z,91.47
2023-04-24T01:18:48.350Z,89.60
2023-04-24T01:21:18.030Z,89.80
2023-04-24T01:23:47.762Z,93.60
2023-04-24T01:26:17.906Z,91.73
2023-04-24T01:28:46.127Z,92.07
2023-04-24T01:31:14.380Z,93.47
2023-04-24T01:33:43.834Z,96.33
2023-04-24T01:36:13.448Z,94.10
2023-04-24T01:38:41.754Z,96.67
2023-04-24T01:41:11.604Z,92.60
2023-04-24T01:43:40.179Z,95.07
2023-04-24T01:46:08.898Z,96.47
2023-04-24T01:48:37.810Z,97.17
2023-04-24T01:51:05.931Z,95.40
2023-04-24T01:53:34.295Z,98.13
2023-04-24T01:56:03.665Z,99.43
2023-04-24T01:58:33.202Z,104.93
2023-04-24T02:01:02.298Z,105.10
2023-04-24T02:03:30.666Z,102.37
2023-04-24T02:05:58.816Z,105.40
2023-04-24T02:08:27.078Z,104.83
2023-04-24T02:10:55.185Z,101.87
2023-04-24T02:13:23.231Z,102.10
2023-04-24T02:15:52.716Z,105.37
2023-04-24T02:18:20.955Z,103.00
2023-04-24T02:20:49.061Z,101.50
2023-04-24T02:23:17.285Z,100.90
2023-04-24T02:25:45.365Z,100.80
2023-04-24T02:28:13.497Z,102.37
2023-04-24T02:30:41.598Z,106.50
2023-04-24T02:33:11.106Z,103.47
2023-04-24T02:35:39.309Z,101.77
2023-04-24T02:38:07.575Z,100.67
2023-04-24T02:40:35.916Z,102.97
2023-04-24T02:43:04.261Z,98.17
2023-04-24T02:45:32.392Z,97.30
2023-04-24T02:48:00.833Z,99.87
2023-04-24T02:50:30.416Z,99.27
2023-04-24T02:52:58.566Z,99.30
2023-04-24T02:55:27.060Z,102.83
2023-04-24T02:57:55.248Z,102.87
2023-04-24T03:00:23.523Z,103.67
2023-04-24T03:02:51.935Z,104.80
2023-04-24T03:05:20.323Z,100.20
2023-04-24T03:07:49.811Z,106.80
2023-04-24T03:10:17.925Z,104.37
2023-04-24T03:12:47.005Z,102.83
2023-04-24T03:15:14.992Z,105.67
2023-04-24T03:17:43.132Z,107.30
2023-04-24T03:20:12.779Z,105.67
2023-04-24T03:22:40.869Z,107.40
2023-04-24T03:25:11.308Z,105.03
2023-04-24T03:27:40.295Z,106.87
2023-04-24T03:30:09.847Z,104.27
2023-04-24T03:32:37.972Z,103.00
2023-04-24T03:35:07.303Z,100.40
2023-04-24T03:37:35.414Z,100.57
2023-04-24T03:40:03.594Z,104.00
2023-04-24T03:42:33.123Z,101.53
2023-04-24T03:45:01.275Z,102.27
2023-04-24T03:47:29.601Z,103.10
2023-04-24T03:49:57.786Z,103.47
2023-04-24T03:52:25.877Z,105.20
2023-04-24T03:54:53.941Z,104.07
2023-04-24T03:57:22.029Z,104.10
2023-04-24T03:59:51.609Z,104.53
2023-04-24T04:02:20.930Z,105.00
2023-04-24T04:04:50.281Z,99.10
2023-04-24T04:07:18.447Z,102.10
2023-04-24T04:09:46.747Z,105.70
2023-04-24T04:12:14.889Z,102.07
2023-04-24T04:14:42.813Z,102.97
2023-04-24T04:17:13.354Z,101.70
2023-04-24T04:19:41.995Z,104.07
2023-04-24T04:22:10.202Z,120.17
2023-04-24T04:24:39.141Z,117.47
2023-04-24T04:27:07.739Z,117.17
2023-04-24T04:29:36.739Z,114.67
2023-04-24T04:32:07.217Z,118.10
2023-04-24T04:34:38.637Z,115.93
2023-04-24T04:37:06.970Z,113.47
2023-04-24T04:39:35.030Z,113.20
2023-04-24T04:42:03.064Z,116.87
2023-04-24T04:44:31.731Z,115.10
2023-04-24T04:47:01.431Z,115.40
2023-04-24T04:49:30.426Z,120.00
2023-04-24T04:51:59.943Z,110.50
2023-04-24T04:54:28.054Z,113.00
2023-04-24T04:56:56.499Z,116.07
2023-04-24T04:59:24.624Z,115.67
2023-04-24T05:01:52.678Z,114.97
2023-04-24T05:04:20.891Z,113.00
2023-04-24T05:06:49.352Z,119.30
2023-04-24T05:09:18.778Z,111.63
2023-04-24T05:11:46.951Z,113.53
2023-04-24T05:14:14.849Z,122.10
2023-04-24T05:16:43.102Z,118.90
2023-04-24T05:19:12.715Z,116.80
2023-04-24T05:21:41.278Z,115.83
2023-04-24T05:24:09.361Z,117.83
2023-04-24T05:26:38.956Z,117.50
2023-04-24T05:29:07.077Z,120.23
2023-04-24T05:31:35.212Z,112.30
2023-04-24T05:34:03.339Z,117.57
2023-04-24T05:36:31.891Z,114.80
2023-04-24T05:39:00.019Z,115.10
2023-04-24T05:41:28.108Z,115.77
2023-04-24T05:43:57.612Z,114.40
2023-04-24T05:46:25.738Z,113.07
2023-04-24T05:48:53.815Z,109.83
2023-04-24T05:51:21.900Z,113.50
2023-04-24T05:53:49.974Z,111.23
2023-04-24T05:56:18.218Z,110.43
2023-04-24T05:58:47.250Z,111.70
2023-04-24T06:01:16.867Z,107.83
2023-04-24T06:03:46.470Z,111.87
2023-04-24T06:06:14.830Z,108.30
2023-04-24T06:08:43.724Z,107.70
2023-04-24T06:11:11.966Z,109.43
2023-04-24T06:13:40.108Z,108.00
2023-04-24T06:16:08.238Z,113.30
2023-04-24T06:18:37.688Z,105.93
2023-04-24T06:21:06.215Z,107.23
2023-04-24T06:23:34.388Z,111.30
2023-04-24T06:26:02.584Z,109.10
2023-04-24T06:28:30.688Z,107.47
2023-04-24T06:30:58.773Z,105.97
2023-04-24T06:33:26.893Z,105.00
2023-04-24T06:35:56.413Z,103.60
2023-04-24T06:38:24.664Z,103.07
2023-04-24T06:40:52.740Z,99.53
2023-04-24T06:43:21.384Z,102.10
2023-04-24T06:45:49.477Z,103.20
2023-04-24T06:48:17.836Z,105.33
2023-04-24T06:50:46.312Z,103.40
2023-04-24T06:53:15.816Z,100.97
2023-04-24T06:55:45.663Z,96.73
2023-04-24T06:58:14.281Z,99.13
2023-04-24T07:00:42.420Z,99.67
2023-04-24T07:03:11.195Z,97.93
2023-04-24T07:05:39.399Z,103.03
2023-04-24T07:08:08.482Z,102.53
2023-04-24T07:10:37.977Z,100.37
2023-04-24T07:13:07.984Z,97.00
2023-04-24T07:15:36.358Z,98.07
2023-04-24T07:18:06.020Z,96.07
2023-04-24T07:20:34.409Z,96.60
2023-04-24T07:23:02.657Z,99.70
2023-04-24T07:25:30.787Z,100.00
2023-04-24T07:28:00.282Z,94.30
2023-04-24T07:30:29.841Z,95.93
2023-04-24T07:32:57.964Z,95.80
2023-04-24T07:35:27.051Z,105.03
2023-04-24T07:37:55.359Z,106.50
2023-04-24T07:40:24.107Z,105.43
2023-04-24T07:42:52.183Z,105.70
2023-04-24T07:45:21.664Z,107.93
2023-04-24T07:47:50.143Z,108.90
2023-04-24T07:50:18.323Z,106.07
2023-04-24T07:52:46.508Z,112.37
2023-04-24T07:55:14.670Z,110.87
2023-04-24T07:57:42.810Z,112.80
2023-04-24T08:00:12.152Z,108.10
2023-04-24T08:02:44.330Z,106.60
2023-04-24T08:05:12.610Z,105.83
2023-04-24T08:07:43.782Z,100.53
2023-04-24T08:10:12.859Z,93.33
2023-04-24T08:12:41.345Z,96.63
2023-04-24T08:15:10.458Z,95.33
2023-04-24T08:17:38.822Z,94.00
2023-04-24T08:20:14.756Z,103.97
2023-04-24T08:22:43.328Z,105.57
2023-04-24T08:25:12.223Z,102.07
2023-04-24T08:27:40.779Z,97.57
2023-04-24T08:30:09.885Z,99.67
2023-04-24T08:32:38.921Z,99.43
2023-04-24T08:35:10.641Z,99.30
2023-04-24T08:37:39.043Z,91.57
2023-04-24T08:40:11.518Z,89.67
2023-04-24T08:42:40.853Z,85.00
2023-04-24T08:45:10.592Z,77.47
2023-04-24T08:47:40.553Z,73.10
2023-04-24T08:50:11.715Z,71.37
2023-04-24T08:52:39.820Z,68.50
2023-04-24T08:55:08.624Z,62.23
2023-04-24T08:57:40.988Z,59.20
2023-04-24T09:00:11.991Z,61.70
2023-04-24T09:02:44.370Z,59.33
2023-04-24T09:05:15.239Z,61.80
2023-04-24T09:07:47.276Z,57.80
2023-04-24T09:10:15.858Z,53.93
2023-04-24T09:12:45.792Z,58.50
2023-04-24T09:15:16.540Z,53.43
2023-04-24T09:17:45.737Z,57.73
2023-04-24T09:20:15.633Z,48.60
2023-04-24T09:22:44.472Z,44.20
2023-04-24T09:25:13.824Z,34.70
2023-04-24T09:27:46.550Z,37.20
2023-04-24T09:30:15.586Z,34.13
2023-04-24T09:32:44.017Z,33.27
2023-04-24T09:35:15.875Z,30.87
2023-04-24T09:37:45.903Z,32.67
2023-04-24T09:40:17.059Z,32.20
2023-04-24T09:42:53.174Z,32.67
2023-04-24T09:45:21.864Z,30.43
2023-04-24T09:47:54.253Z,26.83
2023-04-24T09:50:23.880Z,25.03
2023-04-24T09:52:59.982Z,22.57
2023-04-24T09:55:28.569Z,21.23
2023-04-24T09:57:58.642Z,21.37
2023-04-24T10:00:28.390Z,20.93
2023-04-24T10:03:00.765Z,20.80
2023-04-24T10:05:32.526Z,20.73
2023-04-24T10:08:03.874Z,21.00
2023-04-24T10:10:32.643Z,19.93
2023-04-24T10:13:02.097Z,20.50
2023-04-24T10:15:30.292Z,20.13
2023-04-24T10:18:00.667Z,19.83
2023-04-24T10:20:32.052Z,19.87
2023-04-24T10:23:01.015Z,20.23
2023-04-24T10:25:30.746Z,20.10
2023-04-24T10:28:00.687Z,20.10
2023-04-24T10:30:30.537Z,20.20
2023-04-24T10:32:58.967Z,20.20
2023-04-24T10:35:27.881Z,21.17
2023-04-24T10:38:00.113Z,21.57
2023-04-24T10:40:31.581Z,21.77
2023-04-24T10:42:59.766Z,22.07
2023-04-24T10:45:28.393Z,21.40
2023-04-24T10:48:00.551Z,20.60
2023-04-24T10:50:30.295Z,19.57
2023-04-24T10:53:10.362Z,20.20
2023-04-24T10:55:46.556Z,20.47
2023-04-24T10:58:16.001Z,21.20
2023-04-24T11:00:45.849Z,21.57
2023-04-24T11:03:28.523Z,22.17
2023-04-24T11:06:02.063Z,22.13
2023-04-24T11:08:33.254Z,22.63
2023-04-24T11:11:04.624Z,22.40
2023-04-24T11:14:04.334Z,21.33
2023-04-24T11:16:34.839Z,19.97
2023-04-24T11:19:04.409Z,18.83
2023-04-24T11:21:44.477Z,18.80
2023-04-24T11:24:32.843Z,19.03
2023-04-24T11:27:06.913Z,19.60
2023-04-24T11:29:42.590Z,18.63
2023-04-24T11:32:27.769Z,18.47
2023-04-24T11:34:57.196Z,18.67
2023-04-24T11:37:28.077Z,18.57
2023-04-24T11:40:00.234Z,18.30
2023-04-24T11:42:29.787Z,18.90
2023-04-24T11:44:58.352Z,18.40
2023-04-24T11:47:34.994Z,20.20
2023-04-24T11:50:04.549Z,18.67
2023-04-24T11:52:33.403Z,19.10
2023-04-24T11:55:03.015Z,20.27
2023-04-24T11:57:34.759Z,18.60
2023-04-24T12:00:04.538Z,18.57
2023-04-24T12:02:33.545Z,18.80
2023-04-24T12:05:02.225Z,18.40
2023-04-24T12:07:30.641Z,18.53
2023-04-24T12:10:00.786Z,19.07
2023-04-24T12:12:31.197Z,18.43
2023-04-24T12:15:01.245Z,18.77
2023-04-24T12:17:32.080Z,19.13
2023-04-24T12:20:02.103Z,19.50
2023-04-24T12:22:30.541Z,19.60
2023-04-24T12:25:03.159Z,20.00
2023-04-24T12:27:35.034Z,20.83
2023-04-24T12:30:04.947Z,19.90
2023-04-24T12:32:33.594Z,19.77
2023-04-24T12:35:01.736Z,20.60
2023-04-24T12:37:37.378Z,19.97
2023-04-24T12:40:08.205Z,19.40
2023-04-24T12:42:43.726Z,19.23
2023-04-24T12:45:13.223Z,19.33
2023-04-24T12:47:42.189Z,19.07
2023-04-24T12:50:11.414Z,19.03
2023-04-24T12:52:40.008Z,18.70
2023-04-24T12:55:10.066Z,18.90
2023-04-24T12:57:40.988Z,18.60
2023-04-24T13:00:10.722Z,18.90
2023-04-24T13:02:39.313Z,19.00
2023-04-24T13:05:08.486Z,18.80
2023-04-24T13:07:36.665Z,19.23
2023-04-24T13:10:05.224Z,19.77
2023-04-24T13:12:33.497Z,20.20
2023-04-24T13:15:02.867Z,19.90
2023-04-24T13:17:31.157Z,19.43
2023-04-24T13:19:59.348Z,19.40
2023-04-24T13:22:28.312Z,19.63
2023-04-24T13:24:57.191Z,19.33
2023-04-24T13:27:25.662Z,20.20
2023-04-24T13:29:53.885Z,19.57
2023-04-24T13:32:23.329Z,19.40
2023-04-24T13:34:51.504Z,19.37
2023-04-24T13:37:19.612Z,18.80
2023-04-24T13:39:47.748Z,18.80
2023-04-24T13:42:15.921Z,18.93
2023-04-24T13:44:44.094Z,19.20
2023-04-24T13:47:13.219Z,19.47
2023-04-24T13:49:42.676Z,19.40
2023-04-24T13:52:11.398Z,19.47
2023-04-24T13:54:39.483Z,19.60
2023-04-24T13:57:07.595Z,18.73
2023-04-24T13:59:35.780Z,18.57
2023-04-24T14:02:04.023Z,19.10
2023-04-24T14:04:32.249Z,19.03
2023-04-24T14:07:01.835Z,19.17
2023-04-24T14:09:30.025Z,18.53
2023-04-24T14:11:58.202Z,18.77
2023-04-24T14:14:26.127Z,18.80
2023-04-24T14:16:54.266Z,18.70
2023-04-24T14:19:22.439Z,18.70
2023-04-24T14:21:50.648Z,18.73
2023-04-24T14:24:20.713Z,19.67
2023-04-24T14:26:48.837Z,18.87
2023-04-24T14:29:17.394Z,18.70
2023-04-24T14:31:45.806Z,18.67
2023-04-24T14:34:16.224Z,19.40
2023-04-24T14:36:44.406Z,18.67
2023-04-24T14:39:13.224Z,18.90
2023-04-24T14:41:42.637Z,18.87
2023-04-24T14:44:11.551Z,19.33
2023-04-24T14:46:39.811Z,19.43
2023-04-24T14:49:10.572Z,19.07
2023-04-24T14:51:38.804Z,20.00
2023-04-24T14:54:06.939Z,19.13
2023-04-24T14:56:35.155Z,18.77
2023-04-24T14:59:05.060Z,19.20
2023-04-24T15:01:33.162Z,18.60
2023-04-24T15:04:01.503Z,18.70
2023-04-24T15:06:31.895Z,18.47
2023-04-24T15:09:00.058Z,19.27
2023-04-24T15:11:28.571Z,19.53
2023-04-24T15:13:57.640Z,21.80
2023-04-24T15:16:27.539Z,25.70
2023-04-24T15:18:55.682Z,20.00
2023-04-24T15:21:23.751Z,19.10
2023-04-24T15:23:51.912Z,18.00
2023-04-24T15:26:20.160Z,18.00
2023-04-24T15:28:48.582Z,18.37
2023-04-24T15:31:16.723Z,19.17
2023-04-24T15:33:46.674Z,18.70
2023-04-24T15:36:15.011Z,18.50
2023-04-24T15:38:43.157Z,19.17
2023-04-24T15:41:11.337Z,19.40
2023-04-24T15:43:39.831Z,18.17
2023-04-24T15:46:08.050Z,18.40
2023-04-24T15:48:37.568Z,19.30
2023-04-24T15:51:07.251Z,18.40
2023-04-24T15:53:35.343Z,18.50
2023-04-24T15:56:03.480Z,19.00
2023-04-24T15:58:31.708Z,19.07
2023-04-24T16:01:01.132Z,18.53
2023-04-24T16:03:30.494Z,19.10
2023-04-24T16:05:58.648Z,19.00
2023-04-24T16:08:28.186Z,19.60
2023-04-24T16:10:56.271Z,19.10
2023-04-24T16:13:24.324Z,18.57
2023-04-24T16:15:52.906Z,18.20
2023-04-24T16:18:21.064Z,18.90
2023-04-24T16:20:51.011Z,19.53
2023-04-24T16:23:20.092Z,18.43
2023-04-24T16:25:49.843Z,18.77
2023-04-24T16:28:17.949Z,19.03
2023-04-24T16:30:46.079Z,19.10
2023-04-24T16:33:14.313Z,19.10
2023-04-24T16:35:43.215Z,18.87
2023-04-24T16:38:11.367Z,19.97
2023-04-24T16:40:39.837Z,19.20
2023-04-24T16:43:09.526Z,18.63
2023-04-24T16:45:37.657Z,18.60
2023-04-24T16:48:05.968Z,19.07
2023-04-24T16:50:34.205Z,18.40
2023-04-24T16:53:02.281Z,19.30
2023-04-24T16:55:30.685Z,18.67
2023-04-24T16:57:58.817Z,18.37
2023-04-24T17:00:28.295Z,18.97
2023-04-24T17:02:56.516Z,19.40
2023-04-24T17:05:24.678Z,18.93
2023-04-24T17:07:52.962Z,18.50
2023-04-24T17:10:21.083Z,18.47
2023-04-24T17:12:49.119Z,18.53
2023-04-24T17:15:17.192Z,18.67
2023-04-24T17:17:46.799Z,19.30
2023-04-24T17:20:21.907Z,18.70
2023-04-24T17:22:51.491Z,18.83
2023-04-24T17:25:19.753Z,18.40
2023-04-24T17:27:48.167Z,18.30
2023-04-24T17:30:17.614Z,18.50
2023-04-24T17:32:47.414Z,19.80
2023-04-24T17:35:15.623Z,18.63
2023-04-24T17:37:44.373Z,18.80
2023-04-24T17:40:13.824Z,18.63
2023-04-24T17:42:42.379Z,18.53
2023-04-24T17:45:11.902Z,18.80
2023-04-24T17:47:41.145Z,18.70
2023-04-24T17:50:11.120Z,19.13
2023-04-24T17:52:39.167Z,18.80
2023-04-24T17:55:08.154Z,19.10
2023-04-24T17:57:36.291Z,18.77
2023-04-24T18:00:05.118Z,19.57
2023-04-24T18:02:33.912Z,20.23
2023-04-24T18:05:02.311Z,18.90
2023-04-24T18:07:32.006Z,19.67
2023-04-24T18:10:00.258Z,18.83
2023-04-24T18:12:28.525Z,18.80
2023-04-24T18:15:06.610Z,20.40
2023-04-24T18:17:41.677Z,18.80
2023-04-24T18:20:11.349Z,20.07
2023-04-24T18:22:41.654Z,18.87
2023-04-24T18:25:11.654Z,19.83
2023-04-24T18:27:41.654Z,18.70
2023-04-24T18:30:13.725Z,19.90
2023-04-24T18:32:43.248Z,18.67
2023-04-24T18:35:11.773Z,19.23
2023-04-24T18:37:45.357Z,20.00
2023-04-24T18:40:14.281Z,20.47
2023-04-24T18:42:42.529Z,20.33
2023-04-24T18:45:14.694Z,20.80
2023-04-24T18:47:43.646Z,20.90
2023-04-24T18:50:13.737Z,22.43
2023-04-24T18:52:43.226Z,20.23
2023-04-24T18:55:11.549Z,20.90
2023-04-24T18:57:39.636Z,21.97
2023-04-24T19:00:09.117Z,21.30
2023-04-24T19:02:37.277Z,21.90
2023-04-24T19:05:06.069Z,21.17
2023-04-24T19:07:34.176Z,21.77
2023-04-24T19:10:03.698Z,21.57
2023-04-24T19:12:31.940Z,22.20
2023-04-24T19:15:00.272Z,22.03
2023-04-24T19:17:28.431Z,21.83
2023-04-24T19:19:56.532Z,20.97
2023-04-24T19:22:25.034Z,22.00
2023-04-24T19:24:53.910Z,22.20
2023-04-24T19:27:23.344Z,22.47
2023-04-24T19:29:52.232Z,22.47
2023-04-24T19:32:21.260Z,21.63
2023-04-24T19:35:02.882Z,22.07
2023-04-24T19:37:57.791Z,24.43
2023-04-24T19:40:29.179Z,23.93
2023-04-24T19:42:59.073Z,27.17
2023-04-24T19:45:27.562Z,28.27
2023-04-24T19:47:56.593Z,28.80
2023-04-24T19:50:24.709Z,29.30
2023-04-24T19:52:53.697Z,30.43
2023-04-24T19:55:21.706Z,32.10
2023-04-24T19:57:49.639Z,34.10
2023-04-24T20:00:19.064Z,37.20
2023-04-24T20:02:47.172Z,37.80
2023-04-24T20:05:15.393Z,38.93
2023-04-24T20:07:44.092Z,41.07
2023-04-24T20:10:12.114Z,41.03
2023-04-24T20:12:40.132Z,42.87
2023-04-24T20:15:09.513Z,43.23
2023-04-24T20:17:38.807Z,44.23
2023-04-24T20:20:08.183Z,47.20
2023-04-24T20:22:38.860Z,49.57
2023-04-24T20:25:08.168Z,49.77
2023-04-24T20:27:36.629Z,48.97
2023-04-24T20:30:06.422Z,47.87
2023-04-24T20:32:34.442Z,46.77
2023-04-24T20:35:03.735Z,46.67
2023-04-24T20:37:31.655Z,44.53
2023-04-24T20:39:59.928Z,43.77
2023-04-24T20:42:27.967Z,44.13
2023-04-24T20:44:55.911Z,44.00
2023-04-24T20:47:23.795Z,45.40
2023-04-24T20:49:52.262Z,47.03
2023-04-24T20:52:21.742Z,49.93
2023-04-24T20:54:49.681Z,52.97
2023-04-24T20:57:17.613Z,56.47
2023-04-24T20:59:45.600Z,59.80
2023-04-24T21:02:13.650Z,60.20
2023-04-24T21:04:41.619Z,59.97
2023-04-24T21:07:10.300Z,62.10
2023-04-24T21:09:40.553Z,65.27
2023-04-24T21:12:08.936Z,62.93
2023-04-24T21:14:36.835Z,63.50
2023-04-24T21:17:04.810Z,68.27
2023-04-24T21:19:32.895Z,63.17
2023-04-24T21:22:00.866Z,64.37
2023-04-24T21:24:28.813Z,65.27
2023-04-24T21:26:58.162Z,64.60
2023-04-24T21:29:26.299Z,64.90
2023-04-24T21:31:54.472Z,65.43
2023-04-24T21:34:22.458Z,65.90
2023-04-24T21:36:50.405Z,66.33
2023-04-24T21:39:18.347Z,65.77
2023-04-24T21:41:46.968Z,66.70
2023-04-24T21:44:16.307Z,66.93
2023-04-24T21:46:44.289Z,70.23
2023-04-24T21:49:12.234Z,70.90
2023-04-24T21:51:40.161Z,75.67
2023-04-24T21:54:08.066Z,79.00
2023-04-24T21:56:36.243Z,79.47
2023-04-24T21:59:04.268Z,81.53
2023-04-24T22:01:34.339Z,78.23
2023-04-24T22:04:04.086Z,78.10
2023-04-24T22:06:33.865Z,80.33
2023-04-24T22:09:01.925Z,78.80
2023-04-24T22:11:30.319Z,76.87
2023-04-24T22:13:58.545Z,78.90
2023-04-24T22:16:28.362Z,75.60
2023-04-24T22:18:59.217Z,76.83
2023-04-24T22:21:27.687Z,80.70
2023-04-24T22:23:55.638Z,83.53
2023-04-24T22:26:23.586Z,86.10
2023-04-24T22:28:51.518Z,86.50
2023-04-24T22:31:19.508Z,88.03
2023-04-24T22:33:47.891Z,88.93
2023-04-24T22:36:17.301Z,91.47
2023-04-24T22:38:45.379Z,92.60
2023-04-24T22:41:13.394Z,94.43
2023-04-24T22:43:41.391Z,95.70
2023-04-24T22:46:09.295Z,97.00
2023-04-24T22:48:37.236Z,97.30
2023-04-24T22:51:05.680Z,95.23
2023-04-24T22:53:36.207Z,96.00
2023-04-24T22:56:04.286Z,93.40
2023-04-24T22:58:33.054Z,95.07
2023-04-24T23:01:01.193Z,96.53
2023-04-24T23:03:29.374Z,95.37
2023-04-24T23:05:57.387Z,99.60
2023-04-24T23:08:25.417Z,98.80
2023-04-24T23:10:54.726Z,102.37
2023-04-24T23:13:22.708Z,104.77
2023-04-24T23:15:51.978Z,104.23
2023-04-24T23:18:22.110Z,104.97
2023-04-24T23:20:50.164Z,104.90
2023-04-24T23:23:18.133Z,105.40
2023-04-24T23:25:46.164Z,106.13
2023-04-24T23:28:15.460Z,107.00
2023-04-24T23:30:44.376Z,108.30
2023-04-24T23:33:12.466Z,108.20
2023-04-24T23:35:40.557Z,108.00
2023-04-24T23:38:08.465Z,107.50
2023-04-24T23:40:36.464Z,109.07
2023-04-24T23:43:07.943Z,107.20
2023-04-24T23:45:38.239Z,105.93
2023-04-24T23:48:06.394Z,104.80
2023-04-24T23:50:34.531Z,101.87
2023-04-24T23:53:02.577Z,101.17
2023-04-24T23:55:30.542Z,101.00
2023-04-24T23:57:58.543Z,99.60
